createdAt,value
2019-05-16T00:03:49.665Z,2.80
2019-05-16T00:08:58.497Z,2.50
2019-05-16T00:14:05.459Z,3.05
2019-05-16T00:19:12.569Z,6.17
2019-05-16T00:24:19.489Z,4.55
2019-05-16T00:29:27.715Z,4.45
2019-05-16T00:34:34.585Z,3.60
2019-05-16T00:39:41.553Z,3.10
2019-05-16T00:44:48.440Z,3.80
2019-05-16T00:49:58.189Z,2.95
2019-05-16T00:55:08.483Z,3.27
2019-05-16T01:00:18.174Z,2.92
2019-05-16T01:05:25.470Z,3.10
2019-05-16T01:10:32.430Z,2.62
2019-05-16T01:15:39.429Z,3.20
2019-05-16T01:20:48.079Z,3.85
2019-05-16T01:25:58.639Z,3.72
2019-05-16T01:31:05.439Z,4.20
2019-05-16T01:36:13.443Z,4.10
2019-05-16T01:41:20.428Z,4.17
2019-05-16T01:46:28.454Z,4.10
2019-05-16T01:51:37.822Z,4.42
2019-05-16T01:56:44.429Z,4.08
2019-05-16T02:01:51.434Z,5.10
2019-05-16T02:06:58.625Z,4.58
2019-05-16T02:12:10.815Z,4.85
2019-05-16T02:22:25.576Z,4.65
2019-05-16T02:27:32.626Z,4.45
2019-05-16T02:32:41.680Z,5.10
2019-05-16T02:37:51.681Z,5.00
2019-05-16T02:43:01.093Z,4.80
2019-05-16T02:48:06.458Z,5.00
2019-05-16T02:53:13.478Z,5.53
2019-05-16T02:58:23.442Z,4.95
2019-05-16T03:03:31.686Z,5.45
2019-05-16T03:08:41.226Z,4.72
2019-05-16T03:13:51.324Z,4.90
2019-05-16T03:19:01.192Z,5.22
2019-05-16T03:24:11.157Z,5.47
2019-05-16T03:29:17.419Z,5.85
2019-05-16T03:34:25.905Z,5.17
2019-05-16T03:39:33.395Z,4.80
2019-05-16T03:44:41.087Z,5.05
2019-05-16T03:49:51.572Z,4.35
2019-05-16T03:54:57.381Z,4.47
2019-05-16T04:00:04.580Z,4.65
2019-05-16T04:05:12.104Z,4.80
2019-05-16T04:10:21.622Z,4.78
2019-05-16T04:15:31.097Z,5.10
2019-05-16T04:20:37.413Z,4.50
2019-05-16T04:25:46.222Z,4.30
2019-05-16T04:30:53.439Z,4.20
2019-05-16T04:36:01.277Z,4.72
2019-05-16T04:41:11.525Z,4.17
2019-05-16T04:46:21.412Z,3.85
2019-05-16T04:51:30.489Z,3.27
2019-05-16T04:56:36.457Z,3.70
2019-05-16T05:01:43.436Z,3.87
2019-05-16T05:06:51.251Z,3.47
2019-05-16T05:12:03.961Z,3.62
2019-05-16T05:17:07.437Z,4.35
2019-05-16T05:22:14.442Z,4.50
2019-05-16T05:27:22.463Z,4.40
2019-05-16T05:32:30.549Z,4.95
2019-05-16T05:37:40.725Z,3.65
2019-05-16T05:42:46.423Z,4.03
2019-05-16T05:47:53.573Z,4.50
2019-05-16T05:53:02.635Z,6.20
2019-05-16T05:58:10.034Z,5.80
2019-05-16T06:03:21.653Z,5.75
2019-05-16T06:08:26.388Z,5.87
2019-05-16T06:13:33.491Z,6.92
2019-05-16T06:18:40.447Z,5.92
2019-05-16T06:23:47.570Z,5.37
2019-05-16T06:28:54.726Z,4.58
2019-05-16T06:34:07.847Z,4.60
2019-05-16T06:39:11.386Z,4.35
2019-05-16T06:44:20.308Z,5.00
2019-05-16T06:49:27.429Z,4.28
2019-05-16T06:54:35.453Z,4.00
2019-05-16T06:59:42.444Z,3.20
2019-05-16T07:04:50.627Z,3.72
2019-05-16T07:10:03.557Z,3.60
2019-05-16T07:15:12.298Z,4.25
2019-05-16T07:20:17.432Z,3.10
2019-05-16T07:25:24.451Z,2.70
2019-05-16T07:30:32.841Z,2.90
2019-05-16T07:35:40.164Z,2.77
2019-05-16T07:40:47.413Z,2.97
2019-05-16T07:45:55.476Z,3.45
2019-05-16T07:51:02.582Z,3.52
2019-05-16T07:56:10.539Z,3.95
2019-05-16T08:01:19.905Z,4.80
2019-05-16T08:06:34.330Z,5.55
2019-05-16T08:11:41.605Z,4.80
2019-05-16T08:16:50.158Z,6.80
2019-05-16T08:21:57.435Z,6.45
2019-05-16T08:27:04.769Z,7.65
2019-05-16T08:32:12.063Z,6.92
2019-05-16T08:42:32.141Z,8.30
2019-05-16T08:47:37.447Z,9.07
2019-05-16T08:50:11.088Z,9.30
2019-05-16T08:52:44.466Z,10.23
2019-05-16T08:57:53.138Z,8.98
2019-05-16T09:03:01.651Z,7.90
2019-05-16T09:08:09.500Z,7.35
2019-05-16T09:13:17.588Z,6.55
2019-05-16T09:18:24.490Z,6.55
2019-05-16T09:23:31.448Z,6.92
2019-05-16T09:28:39.091Z,5.97
2019-05-16T09:33:47.386Z,6.10
2019-05-16T09:38:57.649Z,6.55
2019-05-16T09:44:03.528Z,6.37
2019-05-16T09:49:23.975Z,5.65
2019-05-16T09:54:19.429Z,5.60
2019-05-16T09:59:26.605Z,6.80
2019-05-16T10:04:33.564Z,6.10
2019-05-16T10:09:45.017Z,6.12
2019-05-16T10:14:50.263Z,5.58
2019-05-16T10:20:00.277Z,5.58
2019-05-16T10:25:07.004Z,6.47
2019-05-16T10:30:14.685Z,5.53
2019-05-16T10:35:22.882Z,5.03
2019-05-16T10:40:31.608Z,5.46
2019-05-16T10:45:38.433Z,4.37
2019-05-16T10:50:47.833Z,4.33
2019-05-16T10:56:11.053Z,5.20
2019-05-16T11:01:26.925Z,4.72
2019-05-16T11:06:29.276Z,5.20
2019-05-16T11:11:36.877Z,5.95
2019-05-16T11:16:44.240Z,5.45
2019-05-16T11:21:51.447Z,4.70
2019-05-16T11:26:58.446Z,4.65
2019-05-16T11:32:07.160Z,5.65
2019-05-16T11:37:17.517Z,5.05
2019-05-16T11:42:23.411Z,4.87
2019-05-16T11:47:31.570Z,4.70
2019-05-16T11:52:40.714Z,3.52
2019-05-16T11:57:47.798Z,4.00
2019-05-16T12:02:54.646Z,4.50
2019-05-16T12:08:01.563Z,4.70
2019-05-16T12:13:23.792Z,4.55
2019-05-16T12:18:18.424Z,4.30
2019-05-16T12:23:27.588Z,7.15
2019-05-16T12:28:34.573Z,7.05
2019-05-16T12:33:41.476Z,5.70
2019-05-16T12:38:50.583Z,5.97
2019-05-16T12:43:58.064Z,5.75
2019-05-16T12:49:07.021Z,7.90
2019-05-16T12:54:18.223Z,5.78
2019-05-16T12:59:26.793Z,7.57
2019-05-16T13:04:37.764Z,9.60
2019-05-16T13:09:46.667Z,9.20
2019-05-16T13:14:55.446Z,9.10
2019-05-16T13:20:02.619Z,10.50
2019-05-16T13:25:10.460Z,12.20
2019-05-16T13:30:19.246Z,12.65
2019-05-16T13:35:27.232Z,12.18
2019-05-16T13:45:40.440Z,12.00
2019-05-16T13:50:47.611Z,16.57
2019-05-16T13:55:54.674Z,13.40
2019-05-16T14:01:01.617Z,14.00
2019-05-16T14:06:11.370Z,12.60
2019-05-16T14:11:20.684Z,34.27
2019-05-16T14:16:27.556Z,12.85
2019-05-16T14:21:34.536Z,12.28
2019-05-16T14:26:48.246Z,12.30
2019-05-16T14:31:56.817Z,13.43
2019-05-16T14:37:03.640Z,13.25
2019-05-16T14:42:10.584Z,14.80
2019-05-16T14:47:17.866Z,12.18
2019-05-16T14:52:26.977Z,11.70
2019-05-16T14:57:36.604Z,12.00
2019-05-16T15:02:43.452Z,11.90
2019-05-16T15:07:50.505Z,11.50
2019-05-16T15:12:57.471Z,11.88
2019-05-16T15:18:07.744Z,11.97
2019-05-16T15:23:13.418Z,12.15
2019-05-16T15:28:20.437Z,12.33
2019-05-16T15:33:27.539Z,12.57
2019-05-16T15:38:36.509Z,12.37
2019-05-16T15:43:43.503Z,13.10
2019-05-16T15:48:50.579Z,13.03
2019-05-16T15:53:57.593Z,14.25
2019-05-16T15:59:06.904Z,12.63
2019-05-16T16:04:17.459Z,13.00
2019-05-16T16:09:22.881Z,13.50
2019-05-16T16:19:37.193Z,13.58
2019-05-16T16:24:47.540Z,14.15
2019-05-16T16:29:53.432Z,14.55
2019-05-16T16:35:00.589Z,12.80
2019-05-16T16:40:11.131Z,13.03
2019-05-16T16:45:19.082Z,12.65
2019-05-16T16:50:26.673Z,12.75
2019-05-16T16:55:33.459Z,13.05
2019-05-16T17:00:40.573Z,15.53
2019-05-16T17:05:47.463Z,16.37
2019-05-16T17:10:54.584Z,14.03
2019-05-16T17:16:01.475Z,13.00
2019-05-16T17:21:08.552Z,12.20
2019-05-16T17:27:26.864Z,13.78
2019-05-16T17:32:34.255Z,15.95
2019-05-16T17:37:41.547Z,14.78
2019-05-16T17:42:48.641Z,14.70
2019-05-16T17:47:57.160Z,14.83
2019-05-16T17:53:06.837Z,15.03
2019-05-16T17:58:13.443Z,14.33
2019-05-16T18:03:20.487Z,16.03
2019-05-16T18:08:27.472Z,14.70
2019-05-16T18:13:36.908Z,15.32
2019-05-16T18:18:43.412Z,14.53
2019-05-16T18:23:50.598Z,16.07
2019-05-16T18:28:57.562Z,16.37
2019-05-16T18:34:04.486Z,16.57
2019-05-16T18:39:12.555Z,17.12
2019-05-16T18:44:20.480Z,22.75
2019-05-16T18:49:28.561Z,21.42
2019-05-16T18:54:37.560Z,19.45
2019-05-16T18:59:46.229Z,18.67
2019-05-16T19:10:00.556Z,19.05
2019-05-16T19:15:10.721Z,18.77
2019-05-16T19:20:18.760Z,20.90
2019-05-16T19:25:27.041Z,21.80
2019-05-16T19:30:37.084Z,20.25
2019-05-16T19:35:43.595Z,19.00
2019-05-16T19:40:50.621Z,19.98
2019-05-16T19:45:57.674Z,20.48
2019-05-16T19:51:04.588Z,19.75
2019-05-16T19:56:11.468Z,18.25
2019-05-16T20:01:18.580Z,18.98
2019-05-16T20:06:27.412Z,19.82
2019-05-16T20:11:36.900Z,20.00
2019-05-16T20:16:43.434Z,19.15
2019-05-16T20:21:50.471Z,20.25
2019-05-16T20:26:57.600Z,19.90
2019-05-16T20:32:04.589Z,21.73
2019-05-16T20:37:11.471Z,20.65
2019-05-16T20:42:18.453Z,20.80
2019-05-16T20:47:27.184Z,20.88
2019-05-16T20:52:34.458Z,21.62
2019-05-16T20:57:41.444Z,22.00
2019-05-16T21:07:26.449Z,53.30
2019-05-16T21:12:33.446Z,28.95
2019-05-16T21:17:40.582Z,24.52
2019-05-16T21:22:47.585Z,21.68
2019-05-16T21:27:57.340Z,20.95
2019-05-16T21:33:04.465Z,21.10
2019-05-16T21:38:11.470Z,23.10
2019-05-16T21:43:18.467Z,26.73
2019-05-16T21:48:27.691Z,25.90
2019-05-16T21:53:36.574Z,27.00
2019-05-16T21:58:43.431Z,31.05
2019-05-16T22:03:51.585Z,27.27
2019-05-16T22:08:58.737Z,25.72
2019-05-16T22:14:06.565Z,28.47
2019-05-16T22:19:16.508Z,34.43
2019-05-16T22:24:26.497Z,29.07
2019-05-16T22:29:33.585Z,26.75
2019-05-16T22:34:40.579Z,26.50
2019-05-16T22:39:47.548Z,27.82
2019-05-16T22:44:54.448Z,28.55
2019-05-16T22:50:02.076Z,23.75
2019-05-16T22:55:11.314Z,25.23
2019-05-16T23:00:28.287Z,25.12
2019-05-16T23:10:43.648Z,26.30
2019-05-16T23:15:50.563Z,27.17
2019-05-16T23:20:57.461Z,24.77
2019-05-16T23:26:06.330Z,27.73
2019-05-16T23:31:13.405Z,29.52
2019-05-16T23:36:20.474Z,31.23
2019-05-16T23:41:27.537Z,27.07
2019-05-16T23:46:36.393Z,22.60
2019-05-16T23:51:43.432Z,21.23
2019-05-16T23:56:50.454Z,19.40
